Time;durP1;ratioP1;P1;durP2;ratioP2;P2;SDS_P1;SDS_P2;PMS_P1;PMS_P2;Temp;Humidity;BMP_temperature;BMP_pressure;BME280_temperature;BME280_humidity;BME280_pressure;Samples;Min_cycle;Max_cycle;Signal;HPM_P1;HPM_P2
2023/08/18 00:01:38;;;;;;;6.85;5.53;;;;;;;19.85;100.00;95911.41;5030808;28;24450;-76
2023/08/18 00:04:05;;;;;;;7.70;5.88;;;;;;;19.89;100.00;95907.50;5035880;28;24470;-76
2023/08/18 00:06:33;;;;;;;6.88;5.50;;;;;;;19.95;100.00;95908.69;5040375;28;24439;-77
2023/08/18 00:08:59;;;;;;;9.52;5.70;;;;;;;19.91;100.00;95910.81;5043569;28;24582;-76
2023/08/18 00:11:26;;;;;;;6.00;5.50;;;;;;;19.96;100.00;95910.34;5031939;28;24444;-77
2023/08/18 00:13:52;;;;;;;8.75;6.43;;;;;;;19.97;100.00;95898.84;5031464;28;25013;-76
2023/08/18 00:16:19;;;;;;;6.97;6.28;;;;;;;20.02;100.00;95907.09;5030586;28;24443;-76
2023/08/18 00:18:45;;;;;;;6.70;5.60;;;;;;;20.03;100.00;95903.53;5036031;28;24442;-76
2023/08/18 00:21:12;;;;;;;7.53;6.32;;;;;;;20.03;100.00;95906.97;5049420;28;24439;-76
2023/08/18 00:23:41;;;;;;;7.63;6.47;;;;;;;20.04;100.00;95911.25;5049101;28;24442;-76
2023/08/18 00:26:10;;;;;;;8.20;7.07;;;;;;;20.10;100.00;95908.97;5036172;28;24447;-76
2023/08/18 00:28:36;;;;;;;8.15;7.00;;;;;;;20.05;100.00;95907.63;5029264;28;25017;-76
2023/08/18 00:31:03;;;;;;;7.57;6.77;;;;;;;20.05;100.00;95912.06;5029088;28;24432;-76
2023/08/18 00:33:29;;;;;;;8.85;7.65;;;;;;;19.98;100.00;95911.00;5029575;28;24494;-76
2023/08/18 00:35:56;;;;;;;7.65;6.85;;;;;;;19.95;100.00;95900.78;5045161;28;24982;-76
2023/08/18 00:38:22;;;;;;;8.70;6.72;;;;;;;19.94;100.00;95909.66;5036341;28;24523;-76
2023/08/18 00:40:50;;;;;;;9.15;6.47;;;;;;;19.93;100.00;95914.09;5037599;28;24573;-75
2023/08/18 00:43:16;;;;;;;8.05;6.82;;;;;;;19.89;100.00;95911.94;5041244;28;24439;-76
2023/08/18 00:45:43;;;;;;;7.47;6.78;;;;;;;19.80;100.00;95903.13;5033525;28;24432;-77
2023/08/18 00:48:10;;;;;;;7.32;6.63;;;;;;;19.75;100.00;95902.75;5033514;28;24642;-77
2023/08/18 00:50:37;;;;;;;8.48;7.22;;;;;;;19.73;100.00;95899.47;5049736;28;24443;-76
2023/08/18 00:53:04;;;;;;;11.47;7.53;;;;;;;19.59;100.00;95904.22;5043030;28;24432;-76
2023/08/18 00:55:30;;;;;;;9.82;6.70;;;;;;;19.59;100.00;95901.59;5039093;28;24558;-76
2023/08/18 00:58:01;;;;;;;12.25;6.78;;;;;;;19.61;100.00;95904.06;5045404;28;24476;-76
2023/08/18 01:00:28;;;;;;;21.05;6.70;;;;;;;19.56;100.00;95906.31;5048457;28;24450;-76
2023/08/18 01:02:55;;;;;;;13.57;6.88;;;;;;;19.52;100.00;95897.09;5033421;28;24432;-77
2023/08/18 01:05:21;;;;;;;8.02;6.72;;;;;;;19.52;100.00;95900.53;5032883;28;24435;-76
2023/08/18 01:07:48;;;;;;;8.70;6.40;;;;;;;19.50;100.00;95894.59;5044061;28;24811;-76
2023/08/18 01:10:15;;;;;;;7.53;6.60;;;;;;;19.41;100.00;95895.47;5052009;28;24451;-76
2023/08/18 01:12:46;;;;;;;7.43;6.60;;;;;;;19.39;100.00;95897.41;5033141;28;24534;-76
2023/08/18 01:15:18;;;;;;;10.27;6.88;;;;;;;19.33;100.00;95890.97;5037584;28;24435;-76
2023/08/18 01:17:50;;;;;;;6.95;6.25;;;;;;;19.27;100.00;95890.72;5052443;28;24787;-76
2023/08/18 01:20:18;;;;;;;7.13;6.23;;;;;;;19.31;100.00;95884.19;5052119;28;24442;-76
2023/08/18 01:22:46;;;;;;;7.28;5.85;;;;;;;19.28;100.00;95882.72;5033793;28;24443;-76
2023/08/18 01:25:14;;;;;;;6.45;5.82;;;;;;;19.28;100.00;95885.34;5032567;28;24986;-76
2023/08/18 01:27:40;;;;;;;6.80;5.43;;;;;;;19.16;100.00;95880.44;5032742;28;24440;-76
2023/08/18 01:30:08;;;;;;;6.95;6.20;;;;;;;19.16;100.00;95876.00;5045057;28;24697;-76
2023/08/18 01:32:40;;;;;;;7.00;5.32;;;;;;;19.18;100.00;95881.94;5033584;28;24443;-76
2023/08/18 01:35:11;;;;;;;10.27;5.78;;;;;;;19.14;100.00;95879.75;5016942;28;24438;-76
2023/08/18 01:37:39;;;;;;;8.63;5.50;;;;;;;19.17;100.00;95887.31;5032602;28;24438;-76
2023/08/18 01:40:09;;;;;;;8.48;5.80;;;;;;;19.19;100.00;95877.50;5032481;28;24439;-76
2023/08/18 01:42:37;;;;;;;6.45;5.50;;;;;;;19.17;100.00;95882.06;5050857;28;24446;-76
2023/08/18 01:45:04;;;;;;;5.93;5.32;;;;;;;19.20;100.00;95887.84;5015793;28;24803;-76
2023/08/18 01:47:31;;;;;;;6.13;5.53;;;;;;;19.17;100.00;95880.28;5032236;28;24434;-76
2023/08/18 01:49:57;;;;;;;5.70;5.20;;;;;;;19.20;100.00;95884.41;5032132;28;24470;-76
2023/08/18 01:52:24;;;;;;;5.97;5.40;;;;;;;19.18;100.00;95884.56;5048964;28;25001;-76
2023/08/18 01:54:52;;;;;;;6.05;5.45;;;;;;;19.19;100.00;95878.34;5051142;28;24454;-76
2023/08/18 01:57:19;;;;;;;6.53;5.50;;;;;;;19.16;100.00;95883.88;5046380;28;24982;-76
2023/08/18 01:59:46;;;;;;;5.68;5.18;;;;;;;19.25;100.00;95890.06;5032207;28;24435;-76
2023/08/18 02:02:13;;;;;;;6.65;5.05;;;;;;;19.06;100.00;95891.00;5046754;28;24442;-76
2023/08/18 02:04:39;;;;;;;5.60;5.00;;;;;;;18.96;100.00;95875.28;5051772;28;24442;-76
2023/08/18 02:07:06;;;;;;;7.82;5.10;;;;;;;18.87;100.00;95878.75;5051576;28;24521;-76
2023/08/18 02:09:32;;;;;;;5.87;4.70;;;;;;;18.82;100.00;95873.94;5045325;28;24456;-76
2023/08/18 02:11:59;;;;;;;5.68;4.95;;;;;;;18.80;100.00;95872.44;5045651;28;24442;-79
2023/08/18 02:14:26;;;;;;;6.82;5.05;;;;;;;18.83;100.00;95874.78;5063764;28;24431;-78
2023/08/18 02:16:54;;;;;;;6.60;4.75;;;;;;;18.87;100.00;95870.88;5050715;28;24969;-76
2023/08/18 02:19:20;;;;;;;5.45;4.82;;;;;;;18.91;100.00;95879.28;5031598;28;24447;-76
2023/08/18 02:21:48;;;;;;;8.55;5.18;;;;;;;18.89;100.00;95874.19;5042124;28;24436;-76
2023/08/18 02:24:14;;;;;;;5.57;4.97;;;;;;;18.90;100.00;95881.09;5051356;28;24974;-77
2023/08/18 02:26:41;;;;;;;6.28;4.82;;;;;;;18.93;100.00;95872.94;5036277;28;24439;-77
2023/08/18 02:29:07;;;;;;;5.35;4.88;;;;;;;18.94;100.00;95876.38;5049911;28;24485;-76
2023/08/18 02:31:34;;;;;;;6.47;5.00;;;;;;;18.91;100.00;95871.41;5042710;28;24435;-77
2023/08/18 02:34:02;;;;;;;7.43;5.90;;;;;;;18.84;100.00;95868.56;5031794;28;24447;-77
2023/08/18 02:36:28;;;;;;;10.05;6.03;;;;;;;18.79;100.00;95882.09;5032617;28;24447;-77
2023/08/18 02:38:55;;;;;;;13.30;5.72;;;;;;;18.72;100.00;95878.41;5031278;28;24574;-77
2023/08/18 02:41:23;;;;;;;29.97;5.30;;;;;;;18.68;100.00;95881.44;5037722;28;24442;-76
2023/08/18 02:43:49;;;;;;;9.65;5.25;;;;;;;18.65;100.00;95876.47;5050869;28;24442;-77
2023/08/18 02:46:17;;;;;;;7.20;5.00;;;;;;;18.65;100.00;95871.22;5039964;28;25007;-77
2023/08/18 02:48:43;;;;;;;6.45;4.68;;;;;;;18.60;100.00;95861.16;5031128;28;24444;-76
2023/08/18 02:51:11;;;;;;;25.17;4.95;;;;;;;18.58;100.00;95863.13;5035697;28;24446;-76
2023/08/18 02:53:38;;;;;;;24.23;5.45;;;;;;;18.52;100.00;95858.44;5050914;28;24419;-76
2023/08/18 02:56:05;;;;;;;7.07;4.47;;;;;;;18.45;100.00;95863.41;5041637;28;24432;-76
2023/08/18 02:58:33;;;;;;;44.67;5.32;;;;;;;18.33;100.00;95864.56;5030044;28;24532;-77
2023/08/18 03:01:03;;;;;;;20.40;4.32;;;;;;;18.21;100.00;95865.69;5046672;28;24501;-76
2023/08/18 03:03:29;;;;;;;20.98;4.00;;;;;;;18.13;100.00;95861.97;5050445;28;24447;-76
2023/08/18 03:06:00;;;;;;;5.47;3.70;;;;;;;18.19;100.00;95865.00;5049866;28;24435;-76
2023/08/18 03:08:27;;;;;;;28.92;4.03;;;;;;;18.10;100.00;95857.03;5050893;28;24446;-77
2023/08/18 03:10:56;;;;;;;25.15;5.07;;;;;;;18.01;100.00;95857.03;5047587;28;24470;-76
2023/08/18 03:13:23;;;;;;;15.88;4.13;;;;;;;18.02;100.00;95862.13;5032007;28;24846;-77
2023/08/18 03:15:49;;;;;;;13.25;4.40;;;;;;;17.97;100.00;95864.34;5030141;28;24458;-76
2023/08/18 03:18:16;;;;;;;19.75;4.82;;;;;;;17.82;100.00;95857.88;5022069;28;24450;-76
2023/08/18 03:20:43;;;;;;;21.60;4.73;;;;;;;17.82;100.00;95861.31;5026358;28;25018;-76
2023/08/18 03:23:11;;;;;;;38.42;5.78;;;;;;;17.66;100.00;95861.84;5030636;28;24443;-76
2023/08/18 03:25:39;;;;;;;26.83;5.03;;;;;;;17.71;100.00;95865.84;5030550;28;24451;-76
2023/08/18 03:28:07;;;;;;;15.88;5.00;;;;;;;17.62;100.00;95863.06;5030550;28;24770;-76
2023/08/18 03:30:36;;;;;;;13.50;5.35;;;;;;;17.61;100.00;95858.81;5038962;28;24917;-76
2023/08/18 03:33:03;;;;;;;7.35;4.70;;;;;;;17.76;100.00;95861.03;5033156;28;24432;-76
2023/08/18 03:35:31;;;;;;;15.05;4.80;;;;;;;17.82;100.00;95857.88;5036000;28;24849;-77
2023/08/18 03:37:58;;;;;;;16.17;5.30;;;;;;;17.71;100.00;95860.59;5030517;28;24497;-76
2023/08/18 03:40:24;;;;;;;16.02;5.50;;;;;;;17.55;100.00;95875.06;5040798;28;24434;-76
2023/08/18 03:42:52;;;;;;;22.45;5.30;;;;;;;17.49;100.00;95859.88;5049938;28;24435;-76
2023/08/18 03:45:19;;;;;;;6.60;4.95;;;;;;;17.58;100.00;95864.31;5047915;28;24490;-76
2023/08/18 03:47:45;;;;;;;15.30;5.45;;;;;;;17.55;100.00;95867.22;5032831;28;24443;-77
2023/08/18 03:50:13;;;;;;;11.95;5.47;;;;;;;17.58;100.00;95853.84;5030416;28;24816;-76
2023/08/18 03:52:39;;;;;;;6.65;5.30;;;;;;;17.67;100.00;95857.41;5030563;28;24533;-76
2023/08/18 03:55:07;;;;;;;4.93;4.43;;;;;;;17.75;100.00;95862.81;5045682;28;24442;-77
2023/08/18 03:57:33;;;;;;;6.80;5.15;;;;;;;17.53;100.00;95860.44;5045869;28;24986;-76
2023/08/18 04:00:01;;;;;;;5.47;4.60;;;;;;;17.53;100.00;95860.44;5030811;28;24436;-76
2023/08/18 04:02:28;;;;;;;9.90;4.88;;;;;;;17.47;100.00;95866.25;5028986;28;24526;-76
2023/08/18 04:04:54;;;;;;;5.50;5.00;;;;;;;17.44;100.00;95862.09;5030097;28;24466;-76
2023/08/18 04:07:21;;;;;;;9.65;4.95;;;;;;;17.40;100.00;95860.72;5026665;28;24627;-76
2023/08/18 04:09:48;;;;;;;5.65;4.35;;;;;;;17.46;100.00;95862.78;5026961;28;24467;-76
2023/08/18 04:12:14;;;;;;;10.38;4.88;;;;;;;17.38;100.00;95857.41;5010303;28;24428;-76
2023/08/18 04:14:40;;;;;;;5.05;4.53;;;;;;;17.40;100.00;95863.34;5017909;28;24440;-76
2023/08/18 04:17:08;;;;;;;7.95;4.93;;;;;;;17.22;100.00;95872.81;5042571;28;24442;-76
2023/08/18 04:19:35;;;;;;;8.68;4.70;;;;;;;17.10;100.00;95872.09;5048630;28;24439;-76
2023/08/18 04:22:02;;;;;;;5.35;4.50;;;;;;;17.06;100.00;95871.53;5041709;28;24500;-76
2023/08/18 04:24:28;;;;;;;5.17;4.67;;;;;;;16.96;100.00;95865.44;5022206;28;24799;-76
2023/08/18 04:26:59;;;;;;;5.65;4.63;;;;;;;17.03;100.00;95869.19;5042283;28;24432;-79
2023/08/18 04:29:25;;;;;;;7.30;4.65;;;;;;;17.17;100.00;95870.59;5037555;28;24506;-77
2023/08/18 04:31:52;;;;;;;8.27;5.00;;;;;;;17.13;100.00;95872.66;5046912;28;24446;-78
2023/08/18 04:34:20;;;;;;;6.07;4.55;;;;;;;17.24;100.00;95878.72;5050488;28;24436;-78
2023/08/18 04:36:46;;;;;;;7.28;4.72;;;;;;;17.25;100.00;95872.53;5049673;28;24985;-76
2023/08/18 04:39:13;;;;;;;4.32;3.90;;;;;;;17.21;100.00;95871.16;5048728;28;24443;-77
2023/08/18 04:41:40;;;;;;;7.40;4.55;;;;;;;17.09;100.00;95871.28;5049721;28;24437;-77
2023/08/18 04:44:06;;;;;;;4.75;4.15;;;;;;;17.17;100.00;95870.59;5048636;28;25016;-77
2023/08/18 04:46:33;;;;;;;6.53;4.28;;;;;;;17.06;100.00;95878.56;5047972;28;24438;-77
2023/08/18 04:48:59;;;;;;;6.15;4.00;;;;;;;17.01;100.00;95884.16;5034527;28;24447;-77
2023/08/18 04:51:28;;;;;;;6.15;4.15;;;;;;;16.99;100.00;95875.63;5049785;28;24807;-77
2023/08/18 04:53:54;;;;;;;5.45;3.70;;;;;;;17.06;100.00;95875.94;5035068;28;24438;-77
2023/08/18 04:56:21;;;;;;;7.00;3.70;;;;;;;16.98;100.00;95871.34;5030897;28;24440;-77
2023/08/18 04:58:47;;;;;;;9.82;4.25;;;;;;;16.98;100.00;95875.75;5029862;28;25009;-77
2023/08/18 05:01:14;;;;;;;5.57;3.67;;;;;;;16.98;100.00;95879.19;5032344;28;24439;-77
2023/08/18 05:03:41;;;;;;;5.60;4.10;;;;;;;17.07;100.00;95881.03;5049627;28;25063;-77
2023/08/18 05:06:08;;;;;;;7.63;3.60;;;;;;;17.02;100.00;95874.53;5039849;28;24427;-77
2023/08/18 05:08:37;;;;;;;7.20;3.80;;;;;;;17.05;100.00;95876.88;5039032;28;24447;-84
2023/08/18 05:11:05;;;;;;;6.15;3.67;;;;;;;17.09;100.00;95873.03;5034038;28;24455;-82
2023/08/18 05:13:32;;;;;;;4.25;3.45;;;;;;;17.02;100.00;95869.28;5038460;28;24436;-81
2023/08/18 05:15:59;;;;;;;4.20;3.30;;;;;;;17.04;100.00;95870.81;5037040;28;24463;-83
2023/08/18 05:18:25;;;;;;;4.95;3.28;;;;;;;17.08;100.00;95871.38;5034940;28;24466;-79
2023/08/18 05:20:52;;;;;;;4.25;3.30;;;;;;;17.18;100.00;95873.06;5049728;28;24450;-78
2023/08/18 05:23:19;;;;;;;5.85;3.63;;;;;;;17.16;100.00;95867.13;5055746;28;25001;-79
2023/08/18 05:25:48;;;;;;;5.18;3.22;;;;;;;17.26;100.00;95866.34;5039992;28;24629;-78
2023/08/18 05:28:15;;;;;;;4.18;2.97;;;;;;;17.29;100.00;95861.66;5043937;28;24452;-75
2023/08/18 05:30:45;;;;;;;5.13;3.38;;;;;;;17.31;100.00;95867.56;5032672;28;24451;-76
2023/08/18 05:33:12;;;;;;;4.97;3.13;;;;;;;17.22;100.00;95868.41;5049409;28;24439;-77
2023/08/18 05:35:38;;;;;;;6.03;3.60;;;;;;;17.38;100.00;95863.44;5052013;28;24435;-76
2023/08/18 05:38:10;;;;;;;5.55;3.08;;;;;;;17.33;100.00;95867.47;5044516;28;24818;-76
2023/08/18 05:40:37;;;;;;;5.05;3.22;;;;;;;17.39;100.00;95867.75;5032791;28;24432;-76
2023/08/18 05:43:05;;;;;;;4.97;3.53;;;;;;;17.33;100.00;95867.47;5051734;28;24443;-76
2023/08/18 05:45:31;;;;;;;3.30;3.00;;;;;;;17.35;100.00;95875.97;5051743;28;24446;-76
2023/08/18 05:47:58;;;;;;;4.63;3.00;;;;;;;17.36;100.00;95867.19;5044539;28;24428;-76
2023/08/18 05:50:25;;;;;;;4.03;2.90;;;;;;;17.48;100.00;95866.09;5037781;28;24455;-76
2023/08/18 05:52:51;;;;;;;10.23;3.22;;;;;;;17.50;100.00;95865.94;5049301;28;24442;-76
2023/08/18 05:55:18;;;;;;;4.45;3.03;;;;;;;17.51;100.00;95873.69;5051756;28;24435;-77
2023/08/18 05:57:44;;;;;;;4.77;3.03;;;;;;;17.64;100.00;95868.16;5051488;28;24974;-76
2023/08/18 06:00:14;;;;;;;5.00;3.25;;;;;;;17.79;100.00;95879.09;5047446;28;24435;-76
2023/08/18 06:02:41;;;;;;;5.55;3.40;;;;;;;17.90;100.00;95876.34;5031237;28;24435;-75
2023/08/18 06:05:10;;;;;;;5.25;3.30;;;;;;;17.78;100.00;95873.03;5031754;28;24455;-75
2023/08/18 06:07:36;;;;;;;5.28;3.40;;;;;;;17.83;100.00;95877.84;5033794;28;24678;-77
2023/08/18 06:10:03;;;;;;;5.45;3.58;;;;;;;18.14;100.00;95879.34;5047856;28;25072;-77
2023/08/18 06:12:29;;;;;;;7.30;3.20;;;;;;;18.25;100.00;95882.78;5032770;28;24462;-79
2023/08/18 06:14:56;;;;;;;5.78;2.90;;;;;;;18.40;100.00;95885.81;5034405;28;24983;-76
2023/08/18 06:17:24;;;;;;;6.68;3.03;;;;;;;18.55;100.00;95887.81;5032201;28;24432;-76
2023/08/18 06:19:50;;;;;;;5.82;3.05;;;;;;;18.62;100.00;95885.47;5031869;28;24440;-77
2023/08/18 06:22:17;;;;;;;4.90;3.17;;;;;;;18.76;100.00;95892.06;5044828;28;24440;-76
2023/08/18 06:24:43;;;;;;;8.17;3.13;;;;;;;18.80;100.00;95894.28;5051217;28;24811;-76
2023/08/18 06:27:10;;;;;;;7.18;3.13;;;;;;;19.17;100.00;95890.81;5051306;28;24446;-76
2023/08/18 06:29:38;;;;;;;3.60;2.90;;;;;;;19.50;100.00;95894.59;5042516;28;24442;-77
2023/08/18 06:32:04;;;;;;;5.50;2.90;;;;;;;19.76;100.00;95896.50;5040374;28;24463;-76
2023/08/18 06:34:32;;;;;;;6.72;2.70;;;;;;;20.10;100.00;95901.09;5029904;28;24458;-76
2023/08/18 06:36:59;;;;;;;3.75;2.83;;;;;;;20.36;100.00;95891.44;5031613;28;24447;-76
2023/08/18 06:39:25;;;;;;;5.05;2.70;;;;;;;20.56;100.00;95896.53;5036109;28;24835;-76
2023/08/18 06:41:52;;;;;;;6.95;2.63;;;;;;;20.57;100.00;95901.63;5043458;28;24432;-76
2023/08/18 06:44:18;;;;;;;5.63;2.50;;;;;;;20.63;100.00;95902.84;5033088;28;25056;-75
2023/08/18 06:46:45;;;;;;;3.83;2.50;;;;;;;20.51;100.00;95891.75;5034142;28;24444;-75
2023/08/18 06:49:11;;;;;;;3.90;2.65;;;;;;;20.62;100.00;95901.19;5038754;28;24993;-75
2023/08/18 06:51:39;;;;;;;5.82;2.92;;;;;;;21.06;100.00;95903.72;5031490;28;24563;-75
2023/08/18 06:54:06;;;;;;;11.00;2.70;;;;;;;21.19;100.00;95904.09;5031427;28;25021;-75
2023/08/18 06:56:32;;;;;;;4.93;2.47;;;;;;;21.42;100.00;95902.56;5046904;28;24454;-75
2023/08/18 06:58:59;;;;;;;3.20;2.40;;;;;;;21.59;100.00;95910.53;5050412;28;24450;-75
2023/08/18 07:01:25;;;;;;;6.00;2.78;;;;;;;21.56;100.00;95908.22;5042408;28;25014;-75
2023/08/18 07:03:53;;;;;;;3.38;2.60;;;;;;;21.50;100.00;95909.66;5043940;28;24442;-75
2023/08/18 07:06:20;;;;;;;6.95;2.75;;;;;;;21.17;100.00;95906.06;5050528;28;24462;-75
2023/08/18 07:08:48;;;;;;;7.82;2.80;;;;;;;21.17;100.00;95912.19;5050581;28;24993;-75
2023/08/18 07:11:15;;;;;;;6.82;2.90;;;;;;;21.57;100.00;95912.50;5050418;28;24459;-75
2023/08/18 07:13:42;;;;;;;4.80;2.42;;;;;;;21.61;100.00;95908.53;5050930;28;24431;-75
2023/08/18 07:16:09;;;;;;;6.38;2.70;;;;;;;21.46;100.00;95913.63;5036088;28;24527;-75
2023/08/18 07:18:35;;;;;;;4.20;2.55;;;;;;;21.45;100.00;95912.78;5048431;28;24442;-75
2023/08/18 07:21:03;;;;;;;4.15;2.90;;;;;;;21.48;100.00;95923.03;5050482;28;24431;-75
2023/08/18 07:23:30;;;;;;;6.38;2.35;;;;;;;21.52;100.00;95922.69;5048367;28;24446;-76
2023/08/18 07:25:58;;;;;;;5.80;2.35;;;;;;;21.50;100.00;95921.03;5049271;28;24442;-77
2023/08/18 07:28:25;;;;;;;4.93;2.33;;;;;;;21.80;100.00;95918.78;5050131;28;25113;-76
2023/08/18 07:30:52;;;;;;;3.17;2.33;;;;;;;22.09;100.00;95926.25;5049964;28;25005;-76
2023/08/18 07:33:18;;;;;;;9.48;2.40;;;;;;;22.54;100.00;95929.44;5032387;28;24955;-76
2023/08/18 07:35:45;;;;;;;6.60;2.28;;;;;;;22.93;100.00;95930.38;5033207;28;24615;-77
2023/08/18 07:38:12;;;;;;;2.50;2.03;;;;;;;23.08;100.00;95940.25;5050671;28;24493;-77
2023/08/18 07:40:38;;;;;;;4.40;2.10;;;;;;;23.03;100.00;95934.66;5051161;28;24431;-77
2023/08/18 07:43:06;;;;;;;5.53;2.20;;;;;;;23.00;100.00;95942.94;5039610;28;24447;-78
2023/08/18 07:45:33;;;;;;;2.88;2.00;;;;;;;23.23;100.00;95940.38;5032085;28;24558;-78
2023/08/18 07:47:59;;;;;;;3.87;2.20;;;;;;;23.40;100.00;95936.69;5044640;28;24885;-78
2023/08/18 07:50:26;;;;;;;4.57;2.20;;;;;;;23.24;100.00;95942.00;5031033;28;25016;-78
2023/08/18 07:52:52;;;;;;;6.43;2.13;;;;;;;23.58;100.00;95945.19;5044756;28;24492;-78
2023/08/18 07:55:21;;;;;;;2.85;2.05;;;;;;;24.19;100.00;95948.00;5041324;28;24434;-77
2023/08/18 07:57:47;;;;;;;5.03;2.03;;;;;;;24.58;100.00;95947.03;5036466;28;25089;-76
2023/08/18 08:00:17;;;;;;;3.80;1.95;;;;;;;25.08;100.00;95943.75;5031001;28;24978;-78
2023/08/18 08:02:44;;;;;;;2.67;1.90;;;;;;;25.19;100.00;95945.16;5037171;28;24871;-77
2023/08/18 08:05:12;;;;;;;4.25;2.45;;;;;;;25.41;100.00;95939.94;5030719;28;24546;-76
2023/08/18 08:07:39;;;;;;;3.78;2.08;;;;;;;25.66;100.00;95945.75;5030277;28;24931;-77
2023/08/18 08:10:06;;;;;;;3.45;2.03;;;;;;;25.66;100.00;95943.09;5030417;28;24490;-76
2023/08/18 08:12:35;;;;;;;4.60;2.17;;;;;;;25.79;100.00;95940.63;5031399;28;25016;-77
2023/08/18 08:15:03;;;;;;;3.40;1.92;;;;;;;25.81;100.00;95938.63;5030403;28;24439;-77
2023/08/18 08:17:32;;;;;;;2.63;1.80;;;;;;;25.81;100.00;95936.78;5030316;28;24443;-77
2023/08/18 08:19:59;;;;;;;2.63;1.70;;;;;;;25.43;100.00;95936.09;5043052;28;24447;-78
2023/08/18 08:22:26;;;;;;;4.35;2.10;;;;;;;25.05;100.00;95936.16;5049429;28;24507;-76
2023/08/18 08:24:54;;;;;;;4.55;2.08;;;;;;;25.30;100.00;95939.41;5049281;28;24442;-78
2023/08/18 08:27:21;;;;;;;3.38;1.90;;;;;;;25.90;100.00;95936.69;5040462;28;24439;-77
2023/08/18 08:29:48;;;;;;;6.05;2.08;;;;;;;26.00;100.00;95940.66;5030892;28;25257;-77
2023/08/18 08:32:14;;;;;;;4.55;2.10;;;;;;;25.61;100.00;95934.88;5030461;28;24446;-77
2023/08/18 08:34:49;;;;;;;4.15;2.30;;;;;;;25.62;100.00;95941.81;5030992;28;24432;-78
2023/08/18 08:37:15;;;;;;;6.35;2.13;;;;;;;25.58;100.00;95928.94;5041791;28;24439;-78
2023/08/18 08:39:42;;;;;;;5.00;1.90;;;;;;;25.54;100.00;95934.78;5049570;28;24514;-77
2023/08/18 08:42:09;;;;;;;4.68;2.00;;;;;;;25.97;100.00;95932.25;5038353;28;24435;-77
2023/08/18 08:44:36;;;;;;;4.27;1.70;;;;;;;26.43;99.35;95926.56;5036588;28;24443;-77
2023/08/18 08:47:02;;;;;;;5.15;1.70;;;;;;;26.83;97.69;95926.91;5047833;28;24438;-77
2023/08/18 08:49:31;;;;;;;3.77;1.83;;;;;;;26.83;100.00;95922.41;5047015;28;24446;-77
2023/08/18 08:52:02;;;;;;;5.22;2.15;;;;;;;26.95;94.48;95925.34;5049665;28;24458;-78
2023/08/18 08:54:30;;;;;;;4.37;2.00;;;;;;;27.14;76.03;95931.84;5035384;28;24435;-77
2023/08/18 08:56:57;;;;;;;3.53;2.13;;;;;;;27.21;72.55;95924.72;5038278;28;24455;-77
2023/08/18 08:59:24;;;;;;;3.92;1.83;;;;;;;27.12;75.27;95939.22;5038981;28;24807;-75
2023/08/18 09:01:52;;;;;;;4.97;2.20;;;;;;;26.77;76.38;95932.00;5042471;28;24931;-75
2023/08/18 09:04:19;;;;;;;7.82;1.95;;;;;;;26.60;76.76;95937.78;5044946;28;24536;-75
2023/08/18 09:06:47;;;;;;;4.63;1.97;;;;;;;26.49;77.98;95936.47;5044136;28;24986;-75
2023/08/18 09:09:15;;;;;;;4.50;1.90;;;;;;;26.73;76.90;95932.56;5053002;28;24830;-75
2023/08/18 09:11:46;;;;;;;5.22;2.10;;;;;;;27.05;77.00;95930.34;5034630;28;24811;-75
2023/08/18 09:14:13;;;;;;;6.80;2.13;;;;;;;27.11;73.13;95927.75;5039997;28;24435;-76
2023/08/18 09:16:39;;;;;;;3.72;1.90;;;;;;;27.07;75.31;95934.44;5034171;28;24478;-75
2023/08/18 09:19:06;;;;;;;7.07;2.13;;;;;;;26.75;75.87;95934.03;5032571;28;24497;-77
2023/08/18 09:21:33;;;;;;;3.67;2.03;;;;;;;26.60;78.21;95938.59;5033080;28;24512;-76
2023/08/18 09:24:00;;;;;;;6.90;2.20;;;;;;;26.94;76.13;95937.81;5046886;28;24458;-76
2023/08/18 09:26:28;;;;;;;3.50;1.92;;;;;;;27.14;75.86;95932.66;5033260;28;24515;-77
2023/08/18 09:28:54;;;;;;;10.20;2.33;;;;;;;27.08;76.97;95935.28;5032993;28;24447;-77
2023/08/18 09:31:21;;;;;;;4.32;2.10;;;;;;;27.74;76.87;95935.63;5032953;28;24463;-76
2023/08/18 09:33:48;;;;;;;3.47;1.95;;;;;;;27.66;72.16;95928.66;5051122;28;24439;-77
2023/08/18 09:36:15;;;;;;;3.13;1.95;;;;;;;27.69;72.81;95925.56;5050068;28;24795;-77
2023/08/18 09:38:42;;;;;;;3.37;2.10;;;;;;;27.61;72.30;95935.56;5051307;28;24435;-76
2023/08/18 09:41:09;;;;;;;3.92;2.00;;;;;;;27.50;73.36;95926.31;5052559;28;24432;-77
2023/08/18 09:43:37;;;;;;;5.10;2.20;;;;;;;27.20;74.56;95934.53;5036572;28;24436;-76
2023/08/18 09:46:04;;;;;;;7.65;2.00;;;;;;;27.51;73.52;95925.28;5032435;28;24431;-76
2023/08/18 09:48:35;;;;;;;4.55;2.17;;;;;;;27.39;73.81;95927.69;5035119;28;24454;-76
2023/08/18 09:51:02;;;;;;;2.53;1.70;;;;;;;27.58;74.72;95928.78;5038893;28;24807;-76
2023/08/18 09:53:32;;;;;;;3.97;2.25;;;;;;;27.90;75.20;95929.16;5034621;28;24455;-76
2023/08/18 09:56:03;;;;;;;5.45;2.10;;;;;;;27.72;71.97;95917.19;5047201;28;24543;-76
2023/08/18 09:58:35;;;;;;;5.35;2.40;;;;;;;27.75;74.04;95929.31;5041717;28;25013;-76
2023/08/18 10:01:05;;;;;;;3.97;1.98;;;;;;;27.48;74.45;95921.19;5052303;28;24431;-76
2023/08/18 10:03:37;;;;;;;4.07;2.30;;;;;;;27.62;74.72;95927.38;5045949;28;24442;-77
2023/08/18 10:06:06;;;;;;;4.63;2.40;;;;;;;28.13;80.69;95924.28;5045966;28;24431;-76
2023/08/18 10:08:33;;;;;;;6.90;2.50;;;;;;;28.32;71.71;95935.16;5033401;28;24427;-76
2023/08/18 10:11:00;;;;;;;4.20;2.15;;;;;;;28.28;72.14;95924.09;5053014;28;24778;-77
2023/08/18 10:13:29;;;;;;;3.83;2.05;;;;;;;28.40;71.51;95930.47;5045648;28;24473;-77
2023/08/18 10:15:56;;;;;;;5.47;2.17;;;;;;;28.32;72.60;95928.00;5032873;28;24985;-77
2023/08/18 10:18:24;;;;;;;5.90;2.38;;;;;;;28.62;71.06;95930.28;5047407;28;24442;-76
2023/08/18 10:20:53;;;;;;;3.40;1.80;;;;;;;29.02;81.44;95925.78;5034138;28;24959;-76
2023/08/18 10:23:20;;;;;;;6.50;2.03;;;;;;;29.55;76.71;95930.16;5034170;28;24517;-76
2023/08/18 10:25:50;;;;;;;4.87;2.17;;;;;;;29.87;71.94;95931.09;5032803;28;24446;-76
2023/08/18 10:28:19;;;;;;;3.88;2.03;;;;;;;29.54;71.34;95924.00;5032328;28;24947;-76
2023/08/18 10:30:50;;;;;;;7.88;2.45;;;;;;;29.73;66.32;95916.16;5024720;28;24990;-76
2023/08/18 10:33:31;;;;;;;5.72;2.08;;;;;;;29.15;64.83;95917.78;5032318;28;24435;-76
2023/08/18 10:35:58;;;;;;;5.53;2.50;;;;;;;29.60;68.42;95909.03;5032208;28;24419;-76
2023/08/18 10:38:27;;;;;;;4.97;1.95;;;;;;;29.77;73.83;95912.84;5012653;28;24487;-77
2023/08/18 10:40:54;;;;;;;5.65;2.10;;;;;;;29.97;67.48;95914.59;5014597;28;24421;-76
2023/08/18 10:43:20;;;;;;;4.57;2.23;;;;;;;29.87;64.10;95921.22;5040443;28;24450;-76
2023/08/18 10:45:51;;;;;;;6.40;2.20;;;;;;;29.93;64.00;95916.88;5044638;28;24514;-76
2023/08/18 10:48:17;;;;;;;4.65;2.25;;;;;;;29.81;64.88;95911.41;5047593;28;24446;-77
2023/08/18 10:50:46;;;;;;;5.13;2.00;;;;;;;29.83;69.12;95911.19;5051514;28;24416;-76
2023/08/18 10:53:13;;;;;;;4.70;1.80;;;;;;;29.96;61.08;95908.41;5031804;28;24990;-76
2023/08/18 10:55:41;;;;;;;5.05;2.00;;;;;;;30.32;57.60;95905.16;5031856;28;24434;-76
2023/08/18 10:58:08;;;;;;;5.07;1.80;;;;;;;30.26;62.21;95897.16;5037632;28;24443;-76
2023/08/18 11:00:38;;;;;;;4.60;1.98;;;;;;;30.31;58.79;95905.38;5031998;28;24424;-77
2023/08/18 11:03:07;;;;;;;5.75;1.92;;;;;;;29.95;56.58;95901.44;5031624;28;24775;-76
2023/08/18 11:05:34;;;;;;;4.82;1.70;;;;;;;30.17;51.50;95901.16;5032156;28;24513;-76
2023/08/18 11:08:03;;;;;;;7.13;2.17;;;;;;;30.32;51.71;95904.34;5049932;28;24441;-76
2023/08/18 11:10:30;;;;;;;6.17;2.03;;;;;;;30.32;55.30;95902.47;5039718;28;24439;-76
2023/08/18 11:12:58;;;;;;;4.38;1.60;;;;;;;30.12;44.44;95889.22;5035483;28;24521;-76
2023/08/18 11:15:25;;;;;;;7.07;1.90;;;;;;;30.33;49.82;95893.44;5051398;28;24778;-76
2023/08/18 11:17:52;;;;;;;4.22;1.88;;;;;;;30.43;50.75;95882.25;5042735;28;24436;-76
2023/08/18 11:20:19;;;;;;;5.85;1.95;;;;;;;30.39;52.61;95883.72;5030866;28;24431;-76
2023/08/18 11:22:48;;;;;;;5.23;2.30;;;;;;;30.21;49.26;95883.66;5046366;28;24441;-76
2023/08/18 11:25:17;;;;;;;4.32;2.53;;;;;;;30.15;50.10;95877.31;5033926;28;24451;-76
2023/08/18 11:27:44;;;;;;;5.20;1.95;;;;;;;30.19;49.59;95875.06;5044765;28;24800;-76